Time;durP1;ratioP1;P1;durP2;ratioP2;P2;SDS_P1;SDS_P2;PMS_P1;PMS_P2;Temp;Humidity;BMP_temperature;BMP_pressure;BME280_temperature;BME280_humidity;BME280_pressure;Samples;Min_cycle;Max_cycle;Signal;HPM_P1;HPM_P2
2021/11/04 00:00:31;;;;;;;;;;;6.20;99.90;;;;;;5011058;28;19910;-67
2021/11/04 00:02:57;;;;;;;;;;;6.20;99.90;;;;;;5010045;28;19967;-67
2021/11/04 00:05:24;;;;;;;;;;;6.10;99.90;;;;;;5009794;28;19913;-67
2021/11/04 00:07:51;;;;;;;;;;;6.10;99.90;;;;;;5017252;28;19960;-66
2021/11/04 00:10:17;;;;;;;;;;;6.10;99.90;;;;;;5033602;28;19952;-67
2021/11/04 00:12:43;;;;;;;;;;;6.10;99.90;;;;;;5009411;28;19917;-67
2021/11/04 00:15:10;;;;;;;;;;;6.10;99.90;;;;;;5013154;28;19925;-66
2021/11/04 00:17:38;;;;;;;;;;;6.10;99.90;;;;;;5018638;28;19919;-67
2021/11/04 00:20:04;;;;;;;;;;;6.10;99.90;;;;;;5010123;28;19910;-67
2021/11/04 00:22:30;;;;;;;;;;;6.00;99.90;;;;;;5018395;28;19916;-67
2021/11/04 00:24:55;;;;;;;;;;;6.10;99.90;;;;;;5017280;28;19917;-67
2021/11/04 00:27:21;;;;;;;;;;;6.10;99.90;;;;;;5027905;28;20061;-66
2021/11/04 00:29:47;;;;;;;;;;;6.00;99.90;;;;;;5023118;28;19913;-66
2021/11/04 00:32:12;;;;;;;;;;;6.10;99.90;;;;;;5012037;28;19919;-66
2021/11/04 00:34:38;;;;;;;;;;;6.10;99.90;;;;;;5011136;28;19913;-66
2021/11/04 00:37:03;;;;;;;;;;;6.00;99.90;;;;;;5002952;28;19909;-66
2021/11/04 00:39:29;;;;;;;;;;;6.00;99.90;;;;;;5015573;28;20000;-67
2021/11/04 00:41:54;;;;;;;;;;;6.00;99.90;;;;;;5013418;28;19909;-66
2021/11/04 00:44:20;;;;;;;;;;;6.00;99.90;;;;;;5010811;28;20354;-66
2021/11/04 00:46:45;;;;;;;;;;;6.00;99.90;;;;;;5018399;28;19913;-67
2021/11/04 00:49:12;;;;;;;;;;;6.00;99.90;;;;;;5010802;28;20484;-67
2021/11/04 00:51:38;;;;;;;;;;;6.00;99.90;;;;;;5040099;28;20009;-67
2021/11/04 00:54:04;;;;;;;;;;;6.00;99.90;;;;;;5013635;28;19917;-67
2021/11/04 00:56:30;;;;;;;;;;;5.90;99.90;;;;;;5008728;28;19914;-67
2021/11/04 00:58:56;;;;;;;;;;;6.00;99.90;;;;;;5021898;28;19959;-67
2021/11/04 01:01:22;;;;;;;;;;;5.90;99.90;;;;;;5011469;28;19914;-67
2021/11/04 01:03:48;;;;;;;;;;;6.00;99.90;;;;;;5011196;28;19913;-68
2021/11/04 01:06:14;;;;;;;;;;;6.00;99.90;;;;;;5003509;28;19910;-66
2021/11/04 01:08:39;;;;;;;;;;;6.00;99.90;;;;;;5011132;28;19924;-67
2021/11/04 01:11:05;;;;;;;;;;;6.00;99.90;;;;;;5014794;28;21742;-66
2021/11/04 01:13:31;;;;;;;;;;;6.00;99.90;;;;;;5012233;28;19921;-66
2021/11/04 01:15:56;;;;;;;;;;;6.00;99.90;;;;;;5009313;28;20622;-66
2021/11/04 01:18:22;;;;;;;;;;;6.00;99.90;;;;;;5013043;28;19909;-67
2021/11/04 01:20:48;;;;;;;;;;;5.90;99.90;;;;;;4994764;28;19920;-67
2021/11/04 01:23:13;;;;;;;;;;;5.90;99.90;;;;;;5004259;28;19913;-67
2021/11/04 01:25:39;;;;;;;;;;;5.90;99.90;;;;;;5014294;28;19921;-66
2021/11/04 01:28:08;;;;;;;;;;;6.00;99.90;;;;;;5016592;28;20048;-66
2021/11/04 01:30:36;;;;;;;;;;;6.00;99.90;;;;;;5003193;28;19920;-66
2021/11/04 01:33:02;;;;;;;;;;;6.00;99.90;;;;;;5034914;28;19917;-66
2021/11/04 01:35:30;;;;;;;;;;;6.00;99.90;;;;;;5018422;28;19906;-67
2021/11/04 01:37:56;;;;;;;;;;;6.00;99.90;;;;;;4999330;28;19932;-67
2021/11/04 01:40:22;;;;;;;;;;;6.00;99.90;;;;;;4998508;28;19909;-67
2021/11/04 01:42:47;;;;;;;;;;;6.00;99.90;;;;;;5010468;28;19914;-66
2021/11/04 01:45:13;;;;;;;;;;;6.00;99.90;;;;;;5016775;28;20000;-67
2021/11/04 01:47:40;;;;;;;;;;;6.00;99.90;;;;;;5038457;28;19914;-67
2021/11/04 01:50:06;;;;;;;;;;;6.10;99.90;;;;;;5018134;28;20409;-67
2021/11/04 01:52:32;;;;;;;;;;;6.00;99.90;;;;;;5014199;28;19917;-67
2021/11/04 01:54:57;;;;;;;;;;;6.00;99.90;;;;;;5015826;28;19913;-67
2021/11/04 01:57:23;;;;;;;;;;;6.00;99.90;;;;;;5004813;28;20270;-67
2021/11/04 01:59:48;;;;;;;;;;;6.00;99.90;;;;;;5013328;28;19909;-67
2021/11/04 02:02:16;;;;;;;;;;;6.00;99.90;;;;;;5008993;28;19920;-67
2021/11/04 02:04:50;;;;;;;;;;;6.00;99.90;;;;;;5007120;28;19948;-67
2021/11/04 02:07:19;;;;;;;;;;;5.90;99.90;;;;;;5017111;28;19993;-67
2021/11/04 02:09:51;;;;;;;;;;;5.90;99.90;;;;;;5004256;28;19917;-67
2021/11/04 02:12:20;;;;;;;;;;;5.90;99.90;;;;;;5010632;28;20426;-67
2021/11/04 02:14:53;;;;;;;;;;;5.90;99.90;;;;;;5010802;28;19917;-67
2021/11/04 02:17:19;;;;;;;;;;;6.00;99.90;;;;;;5003745;28;19910;-66
2021/11/04 02:19:55;;;;;;;;;;;5.90;99.90;;;;;;5009088;28;19914;-67
2021/11/04 02:22:27;;;;;;;;;;;6.00;99.90;;;;;;4999453;28;19956;-67
2021/11/04 02:25:01;;;;;;;;;;;5.90;99.90;;;;;;5031991;28;19917;-67
2021/11/04 02:27:27;;;;;;;;;;;5.90;99.90;;;;;;5013581;28;19967;-67
2021/11/04 02:29:53;;;;;;;;;;;6.00;99.90;;;;;;5007172;28;20362;-67
2021/11/04 02:32:19;;;;;;;;;;;6.00;99.90;;;;;;5008149;28;20143;-68
2021/11/04 02:34:46;;;;;;;;;;;6.00;99.90;;;;;;5016852;28;19913;-66
2021/11/04 02:37:12;;;;;;;;;;;6.00;99.90;;;;;;4998411;28;19953;-67
2021/11/04 02:39:38;;;;;;;;;;;6.00;99.90;;;;;;5006476;28;19912;-67
2021/11/04 02:42:04;;;;;;;;;;;6.00;99.90;;;;;;5001700;28;19916;-67
2021/11/04 02:44:30;;;;;;;;;;;5.90;99.90;;;;;;5017234;28;20362;-66
2021/11/04 02:46:56;;;;;;;;;;;6.00;99.90;;;;;;5006255;28;19964;-66
2021/11/04 02:49:24;;;;;;;;;;;6.00;99.90;;;;;;5009726;28;19920;-66
2021/11/04 02:51:49;;;;;;;;;;;6.00;99.90;;;;;;5005970;28;19921;-66
2021/11/04 02:54:15;;;;;;;;;;;6.00;99.90;;;;;;5036776;28;19910;-66
2021/11/04 02:56:51;;;;;;;;;;;6.00;99.90;;;;;;5001529;28;20619;-66
2021/11/04 02:59:21;;;;;;;;;;;6.00;99.90;;;;;;5001312;28;20632;-66
2021/11/04 03:01:48;;;;;;;;;;;6.00;99.90;;;;;;5001680;28;19915;-67
2021/11/04 03:04:14;;;;;;;;;;;5.90;99.90;;;;;;5007431;28;19960;-66
2021/11/04 03:06:40;;;;;;;;;;;5.90;99.90;;;;;;5036396;28;19917;-67
2021/11/04 03:09:06;;;;;;;;;;;5.90;99.90;;;;;;5008397;28;19929;-66
2021/11/04 03:11:33;;;;;;;;;;;5.90;99.90;;;;;;5006871;28;19917;-66
2021/11/04 03:13:59;;;;;;;;;;;5.90;99.90;;;;;;5012001;28;20327;-67
2021/11/04 03:16:25;;;;;;;;;;;5.90;99.90;;;;;;5009239;28;20007;-67
2021/11/04 03:18:52;;;;;;;;;;;5.90;99.90;;;;;;5008828;28;20404;-67
2021/11/04 03:21:18;;;;;;;;;;;5.80;99.90;;;;;;5002791;28;19931;-66
2021/11/04 03:23:44;;;;;;;;;;;5.90;99.90;;;;;;5010228;28;20366;-66
2021/11/04 03:26:11;;;;;;;;;;;5.90;99.90;;;;;;5039631;28;19913;-66
2021/11/04 03:28:37;;;;;;;;;;;5.90;99.90;;;;;;5011801;28;20349;-66
2021/11/04 03:31:03;;;;;;;;;;;5.90;99.90;;;;;;5012696;28;20016;-66
2021/11/04 03:33:30;;;;;;;;;;;5.90;99.90;;;;;;5006356;28;19917;-66
2021/11/04 03:35:56;;;;;;;;;;;5.90;99.90;;;;;;5005840;28;19914;-66
2021/11/04 03:38:22;;;;;;;;;;;5.90;99.90;;;;;;5007131;28;19909;-66
2021/11/04 03:40:48;;;;;;;;;;;5.90;99.90;;;;;;5013689;28;19924;-66
2021/11/04 03:43:13;;;;;;;;;;;5.90;99.90;;;;;;5009995;28;20377;-66
2021/11/04 03:45:39;;;;;;;;;;;5.90;99.90;;;;;;5012556;28;19917;-66
2021/11/04 03:48:06;;;;;;;;;;;5.80;99.90;;;;;;5004945;28;19921;-66
2021/11/04 03:50:32;;;;;;;;;;;5.80;99.90;;;;;;5006758;28;19994;-66
2021/11/04 03:52:57;;;;;;;;;;;5.80;99.90;;;;;;5036690;28;19999;-67
2021/11/04 03:55:25;;;;;;;;;;;5.90;99.90;;;;;;5010528;28;19910;-66
2021/11/04 03:57:52;;;;;;;;;;;5.80;99.90;;;;;;5014728;28;19959;-66
2021/11/04 04:00:18;;;;;;;;;;;5.90;99.90;;;;;;5021384;28;20378;-67
2021/11/04 04:02:45;;;;;;;;;;;5.90;99.90;;;;;;5014145;28;19902;-66
2021/11/04 04:05:10;;;;;;;;;;;5.90;99.90;;;;;;5008147;28;20004;-67
2021/11/04 04:07:36;;;;;;;;;;;5.90;99.90;;;;;;5042759;28;20015;-66
2021/11/04 04:10:02;;;;;;;;;;;5.90;99.90;;;;;;5004321;28;20301;-67
2021/11/04 04:12:27;;;;;;;;;;;5.80;99.90;;;;;;5010415;28;19913;-67
2021/11/04 04:14:53;;;;;;;;;;;5.80;99.90;;;;;;5016780;28;19975;-67
2021/11/04 04:17:20;;;;;;;;;;;5.80;99.90;;;;;;5004550;28;19976;-66
2021/11/04 04:19:50;;;;;;;;;;;5.80;99.90;;;;;;5011314;28;19917;-66
2021/11/04 04:22:16;;;;;;;;;;;5.80;99.90;;;;;;5010554;28;20008;-67
2021/11/04 04:24:41;;;;;;;;;;;5.80;99.90;;;;;;5009633;28;19940;-67
2021/11/04 04:27:07;;;;;;;;;;;5.80;99.90;;;;;;5008673;28;20275;-67
2021/11/04 04:29:32;;;;;;;;;;;5.80;99.90;;;;;;5017564;28;19920;-66
2021/11/04 04:32:00;;;;;;;;;;;5.80;99.90;;;;;;5016656;28;19971;-66
2021/11/04 04:34:26;;;;;;;;;;;5.80;99.90;;;;;;5010795;28;20004;-67
2021/11/04 04:36:52;;;;;;;;;;;5.80;99.90;;;;;;5015632;28;20740;-66
2021/11/04 04:39:17;;;;;;;;;;;5.80;99.90;;;;;;5021659;28;19926;-66
2021/11/04 04:41:43;;;;;;;;;;;5.80;99.90;;;;;;5010838;28;19916;-67
2021/11/04 04:44:08;;;;;;;;;;;5.80;99.90;;;;;;5015162;28;20027;-67
2021/11/04 04:46:34;;;;;;;;;;;5.80;99.90;;;;;;5012585;28;19925;-67
2021/11/04 04:49:00;;;;;;;;;;;5.80;99.90;;;;;;5000403;28;19917;-66
2021/11/04 04:51:25;;;;;;;;;;;5.80;99.90;;;;;;5014513;28;19920;-67
2021/11/04 04:53:51;;;;;;;;;;;5.80;99.90;;;;;;5006117;28;20528;-67
2021/11/04 04:56:17;;;;;;;;;;;5.80;99.90;;;;;;5016803;28;20373;-66
2021/11/04 04:58:43;;;;;;;;;;;5.70;99.90;;;;;;5018506;28;19913;-66
2021/11/04 05:01:08;;;;;;;;;;;5.70;99.90;;;;;;5015854;28;20428;-66
2021/11/04 05:03:34;;;;;;;;;;;5.70;99.90;;;;;;5007252;28;19959;-67
2021/11/04 05:06:00;;;;;;;;;;;5.70;99.90;;;;;;5016824;28;19913;-67
2021/11/04 05:08:25;;;;;;;;;;;5.70;99.90;;;;;;5005821;28;20068;-66
2021/11/04 05:10:51;;;;;;;;;;;5.70;99.90;;;;;;5034055;28;19913;-66
2021/11/04 05:13:16;;;;;;;;;;;5.70;99.90;;;;;;5009613;28;19917;-67
2021/11/04 05:15:42;;;;;;;;;;;5.70;99.90;;;;;;5020710;28;19949;-66
2021/11/04 05:18:08;;;;;;;;;;;5.70;99.90;;;;;;5039372;28;19913;-66
2021/11/04 05:20:37;;;;;;;;;;;5.60;99.90;;;;;;5045058;28;19929;-66
2021/11/04 05:23:03;;;;;;;;;;;5.60;99.90;;;;;;5001395;28;19912;-66
2021/11/04 05:25:29;;;;;;;;;;;5.60;99.90;;;;;;5015593;28;19917;-67
2021/11/04 05:27:54;;;;;;;;;;;5.60;99.90;;;;;;5009099;28;20019;-67
2021/11/04 05:30:20;;;;;;;;;;;5.60;99.90;;;;;;5009368;28;19924;-66
2021/11/04 05:32:46;;;;;;;;;;;5.60;99.90;;;;;;5014990;28;19909;-66
2021/11/04 05:35:13;;;;;;;;;;;5.70;99.90;;;;;;5007540;28;19913;-66
2021/11/04 05:37:39;;;;;;;;;;;5.60;99.90;;;;;;5002131;28;20302;-66
2021/11/04 05:40:05;;;;;;;;;;;5.60;99.90;;;;;;5011511;28;19988;-66
2021/11/04 05:42:30;;;;;;;;;;;5.60;99.90;;;;;;5010941;28;19909;-66
2021/11/04 05:44:56;;;;;;;;;;;5.60;99.90;;;;;;5012550;28;19932;-66
2021/11/04 05:47:22;;;;;;;;;;;5.60;99.90;;;;;;5007895;28;19913;-66
2021/11/04 05:49:47;;;;;;;;;;;5.60;99.90;;;;;;5012066;28;19912;-66
2021/11/04 05:52:13;;;;;;;;;;;5.50;99.90;;;;;;5014455;28;19917;-66
2021/11/04 05:54:39;;;;;;;;;;;5.50;99.90;;;;;;5012140;28;20393;-66
2021/11/04 05:57:05;;;;;;;;;;;5.50;99.90;;;;;;5011053;28;20278;-67
2021/11/04 05:59:30;;;;;;;;;;;5.40;99.90;;;;;;5008045;28;19942;-66
2021/11/04 06:01:56;;;;;;;;;;;5.40;99.90;;;;;;5004602;28;19925;-66
2021/11/04 06:04:22;;;;;;;;;;;5.40;99.90;;;;;;5011068;28;19952;-67
2021/11/04 06:06:48;;;;;;;;;;;5.40;99.90;;;;;;5020174;28;19964;-66
2021/11/04 06:09:13;;;;;;;;;;;5.40;99.90;;;;;;5009291;28;19924;-66
2021/11/04 06:11:39;;;;;;;;;;;5.30;99.90;;;;;;5009408;28;20283;-67
2021/11/04 06:14:05;;;;;;;;;;;5.30;99.90;;;;;;5013899;28;19909;-66
2021/11/04 06:16:30;;;;;;;;;;;5.30;99.90;;;;;;5010276;28;19917;-67
2021/11/04 06:18:56;;;;;;;;;;;5.30;99.90;;;;;;5017312;28;19922;-67
2021/11/04 06:21:21;;;;;;;;;;;5.20;99.90;;;;;;5012759;28;20255;-67
2021/11/04 06:23:47;;;;;;;;;;;5.20;99.90;;;;;;5009585;28;20016;-67
2021/11/04 06:26:14;;;;;;;;;;;5.10;99.90;;;;;;5013216;28;19909;-67
2021/11/04 06:28:39;;;;;;;;;;;5.10;99.90;;;;;;5002783;28;20053;-67
2021/11/04 06:31:05;;;;;;;;;;;5.00;99.90;;;;;;5002275;28;20008;-67
2021/11/04 06:33:30;;;;;;;;;;;5.00;99.90;;;;;;5005922;28;19996;-67
2021/11/04 06:35:56;;;;;;;;;;;4.90;99.90;;;;;;4958964;28;20282;-67
2021/11/04 06:38:22;;;;;;;;;;;4.90;99.90;;;;;;5015778;28;19917;-67
2021/11/04 06:40:47;;;;;;;;;;;4.90;99.90;;;;;;5006322;28;19925;-67
2021/11/04 06:43:13;;;;;;;;;;;4.80;99.90;;;;;;5003871;28;20677;-67
2021/11/04 06:45:49;;;;;;;;;;;4.80;99.90;;;;;;5007829;28;19913;-67
2021/11/04 06:48:26;;;;;;;;;;;4.80;99.90;;;;;;5002976;28;19925;-66
2021/11/04 06:50:55;;;;;;;;;;;4.70;99.90;;;;;;5008965;28;19916;-67
2021/11/04 06:53:22;;;;;;;;;;;4.80;99.90;;;;;;5007207;28;20377;-67
2021/11/04 06:55:50;;;;;;;;;;;4.70;99.90;;;;;;5002785;28;19913;-67
2021/11/04 06:58:18;;;;;;;;;;;4.70;99.90;;;;;;5008608;28;20376;-66
2021/11/04 07:00:45;;;;;;;;;;;4.70;99.90;;;;;;4998369;28;19929;-67
2021/11/04 07:03:15;;;;;;;;;;;4.70;99.90;;;;;;4985748;28;19914;-67
2021/11/04 07:05:44;;;;;;;;;;;4.70;99.90;;;;;;4986902;28;19909;-67
2021/11/04 07:08:19;;;;;;;;;;;4.70;99.90;;;;;;4983624;28;19918;-67
2021/11/04 07:10:46;;;;;;;;;;;4.70;99.90;;;;;;5000138;28;19913;-67
2021/11/04 07:13:14;;;;;;;;;;;4.70;99.90;;;;;;4991866;28;19918;-67
2021/11/04 07:15:40;;;;;;;;;;;4.70;99.90;;;;;;4999101;28;19924;-66
2021/11/04 07:18:06;;;;;;;;;;;4.70;99.90;;;;;;4993921;28;19996;-66
2021/11/04 07:20:32;;;;;;;;;;;4.70;99.90;;;;;;4980691;28;19993;-66
2021/11/04 07:22:59;;;;;;;;;;;4.70;99.90;;;;;;4996813;28;20024;-66
2021/11/04 07:25:26;;;;;;;;;;;4.70;99.90;;;;;;4995480;28;19924;-67
2021/11/04 07:27:53;;;;;;;;;;;4.70;99.90;;;;;;5008337;28;19917;-67
2021/11/04 07:30:20;;;;;;;;;;;4.70;99.90;;;;;;5026072;28;20012;-67
2021/11/04 07:32:50;;;;;;;;;;;4.80;99.90;;;;;;5009888;28;19921;-66
2021/11/04 07:35:23;;;;;;;;;;;4.80;99.90;;;;;;4997893;28;19939;-66
2021/11/04 07:37:49;;;;;;;;;;;4.80;99.90;;;;;;4990515;28;19917;-66
2021/11/04 07:40:15;;;;;;;;;;;4.80;99.90;;;;;;4991364;28;20426;-66
2021/11/04 07:42:41;;;;;;;;;;;4.80;99.90;;;;;;5002072;28;20011;-67
2021/11/04 07:45:09;;;;;;;;;;;4.80;99.90;;;;;;4991999;28;20090;-67
2021/11/04 07:47:37;;;;;;;;;;;4.90;99.90;;;;;;5013176;28;19981;-68
2021/11/04 07:50:03;;;;;;;;;;;4.90;99.90;;;;;;4984908;28;19910;-68
2021/11/04 07:52:29;;;;;;;;;;;4.90;99.90;;;;;;4987623;28;19917;-68
2021/11/04 07:54:54;;;;;;;;;;;5.00;99.90;;;;;;5001050;28;19913;-68
2021/11/04 07:57:20;;;;;;;;;;;5.00;99.90;;;;;;4992718;28;19932;-68
2021/11/04 07:59:45;;;;;;;;;;;5.10;99.90;;;;;;5010984;28;20000;-68
2021/11/04 08:02:11;;;;;;;;;;;5.10;99.90;;;;;;4993333;28;19918;-67
2021/11/04 08:04:36;;;;;;;;;;;5.10;99.90;;;;;;4988779;28;19920;-68
2021/11/04 08:07:02;;;;;;;;;;;5.10;99.90;;;;;;4989222;28;19966;-67
2021/11/04 08:09:28;;;;;;;;;;;5.20;99.90;;;;;;4979380;28;19925;-68
2021/11/04 08:11:54;;;;;;;;;;;5.20;99.90;;;;;;4985429;28;20359;-68
2021/11/04 08:14:19;;;;;;;;;;;5.20;99.90;;;;;;4984828;28;19924;-67
2021/11/04 08:16:45;;;;;;;;;;;5.30;99.90;;;;;;4994921;28;20354;-67
2021/11/04 08:19:10;;;;;;;;;;;5.30;99.90;;;;;;4999180;28;20042;-68
2021/11/04 08:21:36;;;;;;;;;;;5.20;99.90;;;;;;5014970;28;20323;-67
2021/11/04 08:24:01;;;;;;;;;;;5.30;99.90;;;;;;4980476;28;20547;-67
2021/11/04 08:26:27;;;;;;;;;;;5.20;99.90;;;;;;4985423;28;20323;-67
2021/11/04 08:28:53;;;;;;;;;;;5.20;99.90;;;;;;4982989;28;19973;-68
2021/11/04 08:31:19;;;;;;;;;;;5.20;99.90;;;;;;4982102;28;20016;-67
2021/11/04 08:33:45;;;;;;;;;;;5.20;99.90;;;;;;4986626;28;19975;-67
2021/11/04 08:36:10;;;;;;;;;;;5.30;99.90;;;;;;4982191;28;19918;-67
2021/11/04 08:38:36;;;;;;;;;;;5.30;99.90;;;;;;5015565;28;20291;-68
2021/11/04 08:41:02;;;;;;;;;;;5.30;99.90;;;;;;4984688;28;19914;-68
2021/11/04 08:43:28;;;;;;;;;;;5.30;99.90;;;;;;4982019;28;19914;-68
2021/11/04 08:45:54;;;;;;;;;;;5.30;99.90;;;;;;4981022;28;19913;-67
2021/11/04 08:48:20;;;;;;;;;;;5.40;99.90;;;;;;4985713;28;19918;-67
2021/11/04 08:50:46;;;;;;;;;;;5.30;99.90;;;;;;4983874;28;19914;-68
2021/11/04 08:53:12;;;;;;;;;;;5.40;99.90;;;;;;5012633;28;20355;-68
2021/11/04 08:55:37;;;;;;;;;;;5.50;99.90;;;;;;4986842;28;19921;-67
2021/11/04 08:58:03;;;;;;;;;;;5.50;99.90;;;;;;4986647;28;19917;-67
2021/11/04 09:00:28;;;;;;;;;;;5.50;99.90;;;;;;4984351;28;19914;-68
2021/11/04 09:02:54;;;;;;;;;;;5.50;99.90;;;;;;4979812;28;19909;-67
2021/11/04 09:05:21;;;;;;;;;;;5.60;99.90;;;;;;4981859;28;19971;-67
2021/11/04 09:07:46;;;;;;;;;;;5.60;99.90;;;;;;4982531;28;19917;-67
2021/11/04 09:10:13;;;;;;;;;;;5.60;99.90;;;;;;4988407;28;19909;-68
2021/11/04 09:12:39;;;;;;;;;;;5.60;99.90;;;;;;4984044;28;19910;-68
2021/11/04 09:15:05;;;;;;;;;;;5.60;99.90;;;;;;4982947;28;19917;-68
2021/11/04 09:17:31;;;;;;;;;;;5.70;99.90;;;;;;4988693;28;19910;-68
2021/11/04 09:19:56;;;;;;;;;;;5.70;99.90;;;;;;4977061;28;20398;-68
2021/11/04 09:22:22;;;;;;;;;;;5.70;99.90;;;;;;4983699;28;20016;-68
2021/11/04 09:24:48;;;;;;;;;;;5.80;99.90;;;;;;4982054;28;19922;-69
2021/11/04 09:27:14;;;;;;;;;;;5.80;99.90;;;;;;4983747;28;19929;-69
2021/11/04 09:29:40;;;;;;;;;;;5.80;99.90;;;;;;4986328;28;19917;-69
2021/11/04 09:32:08;;;;;;;;;;;5.80;99.90;;;;;;4983964;28;20298;-69
2021/11/04 09:34:33;;;;;;;;;;;5.80;99.90;;;;;;4986858;28;19913;-69
2021/11/04 09:36:59;;;;;;;;;;;5.80;99.90;;;;;;5000368;28;19972;-69
2021/11/04 09:39:25;;;;;;;;;;;5.90;99.90;;;;;;4982952;28;19914;-69
2021/11/04 09:41:50;;;;;;;;;;;5.90;99.90;;;;;;5002795;28;20353;-69
2021/11/04 09:44:18;;;;;;;;;;;5.90;99.90;;;;;;4982543;28;19921;-69
2021/11/04 09:46:43;;;;;;;;;;;5.90;99.90;;;;;;4981367;28;20348;-69
2021/11/04 09:49:10;;;;;;;;;;;5.90;99.90;;;;;;4982593;28;19929;-69
2021/11/04 09:51:36;;;;;;;;;;;6.00;99.90;;;;;;4983445;28;19997;-69
2021/11/04 09:54:02;;;;;;;;;;;6.00;99.90;;;;;;4980296;28;20028;-69
2021/11/04 09:56:28;;;;;;;;;;;6.00;99.90;;;;;;4980874;28;19913;-69
2021/11/04 09:58:53;;;;;;;;;;;6.10;99.90;;;;;;4983543;28;19920;-69
2021/11/04 10:01:21;;;;;;;;;;;6.10;99.90;;;;;;4984390;28;19925;-69
2021/11/04 10:03:47;;;;;;;;;;;6.20;99.90;;;;;;4980928;28;19925;-69
2021/11/04 10:06:23;;;;;;;;;;;6.20;99.90;;;;;;4979138;28;19909;-70
2021/11/04 10:08:51;;;;;;;;;;;6.20;99.90;;;;;;4995991;28;19914;-69
2021/11/04 10:11:16;;;;;;;;;;;6.20;99.90;;;;;;4981297;28;19921;-69
2021/11/04 10:13:43;;;;;;;;;;;6.10;99.90;;;;;;4982812;28;19910;-69
2021/11/04 10:16:09;;;;;;;;;;;6.10;99.90;;;;;;4998732;28;19913;-69
2021/11/04 10:18:43;;;;;;;;;;;6.10;99.90;;;;;;5011922;28;19910;-70
2021/11/04 10:21:08;;;;;;;;;;;6.10;99.90;;;;;;4982725;28;20009;-69
2021/11/04 10:23:36;;;;;;;;;;;6.10;99.90;;;;;;4980584;28;20005;-69
2021/11/04 10:26:04;;;;;;;;;;;6.20;99.90;;;;;;4982978;28;20341;-69
2021/11/04 10:28:30;;;;;;;;;;;6.20;99.90;;;;;;4985790;28;19926;-69
2021/11/04 10:30:57;;;;;;;;;;;6.20;99.90;;;;;;4983628;28;20453;-69
2021/11/04 10:33:24;;;;;;;;;;;6.20;99.90;;;;;;4983104;28;19910;-70
2021/11/04 10:35:50;;;;;;;;;;;6.20;99.90;;;;;;4983611;28;19925;-69
2021/11/04 10:38:16;;;;;;;;;;;6.30;99.90;;;;;;4982904;28;19913;-69
2021/11/04 10:40:41;;;;;;;;;;;6.30;99.90;;;;;;4987178;28;19909;-69
2021/11/04 10:43:07;;;;;;;;;;;6.30;99.90;;;;;;4978216;28;19914;-69
2021/11/04 10:45:33;;;;;;;;;;;6.30;99.90;;;;;;4997002;28;19913;-70
2021/11/04 10:48:15;;;;;;;;;;;6.20;99.90;;;;;;4985218;28;19915;-69
2021/11/04 10:50:41;;;;;;;;;;;6.30;99.90;;;;;;4994429;28;20386;-69
2021/11/04 10:53:06;;;;;;;;;;;6.40;99.90;;;;;;4984533;28;20044;-69
2021/11/04 10:55:32;;;;;;;;;;;6.30;99.90;;;;;;4982216;28;19996;-69
2021/11/04 10:57:58;;;;;;;;;;;6.30;99.90;;;;;;4979703;28;20557;-69
2021/11/04 11:00:24;;;;;;;;;;;6.30;99.90;;;;;;4980360;28;19932;-69
2021/11/04 11:03:06;;;;;;;;;;;6.30;99.90;;;;;;4981605;28;19927;-69
2021/11/04 11:05:33;;;;;;;;;;;6.40;99.90;;;;;;4980211;28;19910;-69
2021/11/04 11:07:59;;;;;;;;;;;6.40;99.90;;;;;;4999065;28;19918;-69
2021/11/04 11:10:24;;;;;;;;;;;6.40;99.90;;;;;;4987269;28;19910;-69
2021/11/04 11:12:50;;;;;;;;;;;6.30;99.90;;;;;;5012571;28;19918;-69
2021/11/04 11:15:16;;;;;;;;;;;6.30;99.90;;;;;;4985076;28;19917;-69
2021/11/04 11:17:42;;;;;;;;;;;6.20;99.90;;;;;;5000614;28;20012;-68
2021/11/04 11:20:09;;;;;;;;;;;6.30;99.90;;;;;;4980709;28;19984;-69
2021/11/04 11:22:36;;;;;;;;;;;6.30;99.90;;;;;;4984115;28;19984;-68
2021/11/04 11:25:02;;;;;;;;;;;6.20;99.90;;;;;;4979703;28;19925;-68
2021/11/04 11:27:27;;;;;;;;;;;6.30;99.90;;;;;;4981305;28;19923;-68
2021/11/04 11:29:53;;;;;;;;;;;6.30;99.90;;;;;;4978418;28;20363;-68
2021/11/04 11:32:22;;;;;;;;;;;6.30;99.90;;;;;;4983004;28;19953;-68
2021/11/04 11:34:49;;;;;;;;;;;6.40;99.90;;;;;;5007166;28;19921;-68
2021/11/04 11:37:19;;;;;;;;;;;6.40;99.90;;;;;;4980936;28;20397;-69
2021/11/04 11:39:54;;;;;;;;;;;6.30;99.90;;;;;;4978530;28;19922;-69
2021/11/04 11:42:20;;;;;;;;;;;6.30;99.90;;;;;;4981654;28;19918;-69
2021/11/04 11:44:48;;;;;;;;;;;6.30;99.90;;;;;;4981622;28;19909;-69
2021/11/04 11:47:17;;;;;;;;;;;6.30;99.90;;;;;;4982142;28;19914;-68
2021/11/04 11:49:45;;;;;;;;;;;6.30;99.90;;;;;;4978396;28;19913;-69
2021/11/04 11:52:40;;;;;;;;;;;6.30;99.90;;;;;;5012293;28;19942;-68
2021/11/04 11:55:07;;;;;;;;;;;6.30;99.90;;;;;;4991336;28;22183;-68
2021/11/04 11:57:33;;;;;;;;;;;6.30;99.90;;;;;;4977503;28;20383;-68
2021/11/04 11:59:58;;;;;;;;;;;6.20;99.90;;;;;;5008693;28;19918;-68
2021/11/04 12:02:40;;;;;;;;;;;6.30;99.90;;;;;;4983351;28;19917;-68
2021/11/04 12:05:21;;;;;;;;;;;6.30;99.90;;;;;;4978567;28;19913;-69
2021/11/04 12:07:50;;;;;;;;;;;6.20;99.90;;;;;;4978270;28;19957;-68
2021/11/04 12:10:31;;;;;;;;;;;6.20;99.90;;;;;;4982204;28;19918;-68
2021/11/04 12:12:58;;;;;;;;;;;6.30;99.90;;;;;;4997641;28;19914;-68
2021/11/04 12:15:24;;;;;;;;;;;6.30;99.90;;;;;;4985686;28;19913;-68
2021/11/04 12:18:08;;;;;;;;;;;6.30;99.90;;;;;;4989720;28;20022;-68
2021/11/04 12:20:34;;;;;;;;;;;6.30;99.90;;;;;;4985887;28;19929;-68
2021/11/04 12:22:59;;;;;;;;;;;6.30;99.90;;;;;;4986257;28;20377;-68
2021/11/04 12:25:28;;;;;;;;;;;6.30;99.90;;;;;;4981455;28;19909;-68
2021/11/04 12:27:57;;;;;;;;;;;6.30;99.90;;;;;;4987203;28;19979;-69
2021/11/04 12:30:25;;;;;;;;;;;6.30;99.90;;;;;;4995789;28;19913;-68
2021/11/04 12:33:19;;;;;;;;;;;6.30;99.90;;;;;;4996043;28;19906;-68
2021/11/04 12:35:52;;;;;;;;;;;6.30;99.90;;;;;;4999616;28;19920;-69
2021/11/04 12:38:19;;;;;;;;;;;6.30;99.90;;;;;;4987377;28;19918;-68
2021/11/04 12:40:46;;;;;;;;;;;6.20;99.90;;;;;;4988745;28;20025;-69
2021/11/04 12:43:13;;;;;;;;;;;6.20;99.90;;;;;;5006502;28;20465;-69
2021/11/04 12:45:44;;;;;;;;;;;6.30;99.90;;;;;;4994296;28;19980;-68
2021/11/04 12:48:10;;;;;;;;;;;6.30;99.90;;;;;;4985964;28;19918;-69
2021/11/04 12:50:37;;;;;;;;;;;6.30;99.90;;;;;;4983602;28;19920;-68
2021/11/04 12:53:04;;;;;;;;;;;6.30;99.90;;;;;;4991744;28;19913;-68
2021/11/04 12:55:29;;;;;;;;;;;6.30;99.90;;;;;;4981767;28;19997;-68
2021/11/04 12:57:58;;;;;;;;;;;6.20;99.90;;;;;;4991027;28;20001;-68
2021/11/04 13:00:24;;;;;;;;;;;6.20;99.90;;;;;;4990752;28;19914;-68
2021/11/04 13:02:49;;;;;;;;;;;6.20;99.90;;;;;;5019772;28;19913;-68
2021/11/04 13:05:16;;;;;;;;;;;6.20;99.90;;;;;;4996300;28;19952;-68
2021/11/04 13:07:42;;;;;;;;;;;6.20;99.90;;;;;;4982899;28;19921;-68
2021/11/04 13:10:15;;;;;;;;;;;6.20;99.90;;;;;;5010806;28;20486;-68
2021/11/04 13:12:42;;;;;;;;;;;6.20;99.90;;;;;;4983266;28;19961;-68
2021/11/04 13:15:14;;;;;;;;;;;6.20;99.90;;;;;;5012316;28;19909;-68
2021/11/04 13:17:50;;;;;;;;;;;6.20;99.90;;;;;;5014839;28;19968;-68
2021/11/04 13:20:28;;;;;;;;;;;6.20;99.90;;;;;;4991357;28;19914;-68
2021/11/04 13:23:03;;;;;;;;;;;6.30;99.90;;;;;;5017138;28;19913;-68
2021/11/04 13:25:32;;;;;;;;;;;6.30;99.90;;;;;;5012544;28;20375;-68
2021/11/04 13:28:08;;;;;;;;;;;6.30;99.90;;;;;;5013468;28;19918;-68
2021/11/04 13:30:39;;;;;;;;;;;6.30;99.90;;;;;;4989239;28;19906;-68
2021/11/04 13:33:04;;;;;;;;;;;6.40;99.90;;;;;;4987433;28;19912;-67
2021/11/04 13:35:35;;;;;;;;;;;6.40;99.90;;;;;;4985166;28;19909;-68
2021/11/04 13:38:12;;;;;;;;;;;6.30;99.90;;;;;;4980456;28;22293;-68
2021/11/04 13:40:47;;;;;;;;;;;6.30;99.90;;;;;;4991107;28;20292;-68
2021/11/04 13:43:31;;;;;;;;;;;6.30;99.90;;;;;;4985802;28;19917;-68
2021/11/04 13:46:06;;;;;;;;;;;6.30;99.90;;;;;;4985102;28;19937;-68
2021/11/04 13:48:31;;;;;;;;;;;6.30;99.90;;;;;;5007665;28;19952;-68
2021/11/04 13:50:57;;;;;;;;;;;6.30;99.90;;;;;;4981970;28;19937;-68
2021/11/04 13:53:24;;;;;;;;;;;6.30;99.90;;;;;;4980372;28;19960;-67
2021/11/04 13:55:51;;;;;;;;;;;6.30;99.90;;;;;;4984338;28;20290;-68
2021/11/04 13:58:17;;;;;;;;;;;6.30;99.90;;;;;;4985023;28;19998;-67
2021/11/04 14:00:43;;;;;;;;;;;6.30;99.90;;;;;;4975503;28;19922;-68
2021/11/04 14:03:13;;;;;;;;;;;6.30;99.90;;;;;;4996742;28;19910;-68
2021/11/04 14:05:48;;;;;;;;;;;6.30;99.90;;;;;;4983010;28;19921;-68
2021/11/04 14:08:14;;;;;;;;;;;6.40;99.90;;;;;;4998029;28;19975;-68
2021/11/04 14:10:39;;;;;;;;;;;6.40;99.90;;;;;;4991360;28;20374;-67
2021/11/04 14:13:05;;;;;;;;;;;6.40;99.90;;;;;;4987766;28;19921;-67
2021/11/04 14:15:40;;;;;;;;;;;6.40;99.90;;;;;;4993923;28;19925;-67
2021/11/04 14:18:17;;;;;;;;;;;6.40;99.90;;;;;;5016916;28;19916;-67
2021/11/04 14:20:43;;;;;;;;;;;6.50;99.90;;;;;;4994627;28;19949;-68
2021/11/04 14:23:08;;;;;;;;;;;6.50;99.90;;;;;;4990604;28;19971;-67
2021/11/04 14:25:34;;;;;;;;;;;6.50;99.90;;;;;;4997046;28;19909;-67
2021/11/04 14:28:04;;;;;;;;;;;6.50;99.90;;;;;;4985319;28;20379;-67
2021/11/04 14:30:31;;;;;;;;;;;6.50;99.90;;;;;;4988264;28;20424;-67